sensor_id;sensor_type;location;lat;lon;timestamp;temperature;humidity
490;DHT22;231;48.120;11.576;2022-12-07T00:00:21;4.30;43.30
490;DHT22;231;48.120;11.576;2022-12-07T00:02:55;4.40;43.80
490;DHT22;231;48.120;11.576;2022-12-07T00:05:22;4.40;42.90
490;DHT22;231;48.120;11.576;2022-12-07T00:07:49;4.30;42.60
490;DHT22;231;48.120;11.576;2022-12-07T00:10:16;4.30;42.60
490;DHT22;231;48.120;11.576;2022-12-07T00:12:43;4.40;42.80
490;DHT22;231;48.120;11.576;2022-12-07T00:15:10;4.40;42.40
490;DHT22;231;48.120;11.576;2022-12-07T00:17:38;4.40;42.70
490;DHT22;231;48.120;11.576;2022-12-07T00:20:06;4.50;43.00
490;DHT22;231;48.120;11.576;2022-12-07T00:22:33;4.40;41.50
490;DHT22;231;48.120;11.576;2022-12-07T00:25:00;4.50;41.70
490;DHT22;231;48.120;11.576;2022-12-07T00:27:28;4.60;42.40
490;DHT22;231;48.120;11.576;2022-12-07T00:29:54;4.50;40.60
490;DHT22;231;48.120;11.576;2022-12-07T00:32:21;4.40;40.60
490;DHT22;231;48.120;11.576;2022-12-07T00:34:50;4.40;41.50
490;DHT22;231;48.120;11.576;2022-12-07T00:37:17;4.50;41.50
490;DHT22;231;48.120;11.576;2022-12-07T00:39:45;4.60;41.60
490;DHT22;231;48.120;11.576;2022-12-07T00:42:20;4.60;41.40
490;DHT22;231;48.120;11.576;2022-12-07T00:44:47;4.60;40.10
490;DHT22;231;48.120;11.576;2022-12-07T00:47:14;4.40;39.30
490;DHT22;231;48.120;11.576;2022-12-07T00:49:41;4.50;38.80
490;DHT22;231;48.120;11.576;2022-12-07T00:52:09;4.00;39.20
490;DHT22;231;48.120;11.576;2022-12-07T00:54:36;4.40;39.40
490;DHT22;231;48.120;11.576;2022-12-07T00:57:03;4.40;39.80
490;DHT22;231;48.120;11.576;2022-12-07T00:59:30;4.40;39.60
490;DHT22;231;48.120;11.576;2022-12-07T01:01:57;4.40;39.60
490;DHT22;231;48.120;11.576;2022-12-07T01:04:24;4.40;38.90
490;DHT22;231;48.120;11.576;2022-12-07T01:06:51;4.40;38.20
490;DHT22;231;48.120;11.576;2022-12-07T01:09:19;4.20;38.80
490;DHT22;231;48.120;11.576;2022-12-07T01:11:46;4.30;39.60
490;DHT22;231;48.120;11.576;2022-12-07T01:14:13;4.20;39.50
490;DHT22;231;48.120;11.576;2022-12-07T01:16:40;4.10;40.20
490;DHT22;231;48.120;11.576;2022-12-07T01:19:07;4.20;40.60
490;DHT22;231;48.120;11.576;2022-12-07T01:21:35;4.20;40.60
490;DHT22;231;48.120;11.576;2022-12-07T01:24:04;4.20;40.40
490;DHT22;231;48.120;11.576;2022-12-07T01:26:32;4.10;40.30
490;DHT22;231;48.120;11.576;2022-12-07T01:28:59;4.10;40.30
490;DHT22;231;48.120;11.576;2022-12-07T01:31:28;4.10;40.40
490;DHT22;231;48.120;11.576;2022-12-07T01:33:56;4.10;40.70
490;DHT22;231;48.120;11.576;2022-12-07T01:36:25;4.20;40.60
490;DHT22;231;48.120;11.576;2022-12-07T01:38:55;4.10;39.70
490;DHT22;231;48.120;11.576;2022-12-07T01:41:25;4.10;40.50
490;DHT22;231;48.120;11.576;2022-12-07T01:44:16;3.80;40.20
490;DHT22;231;48.120;11.576;2022-12-07T01:46:45;4.40;40.60
490;DHT22;231;48.120;11.576;2022-12-07T01:49:16;4.20;40.10
490;DHT22;231;48.120;11.576;2022-12-07T01:51:45;4.20;40.40
490;DHT22;231;48.120;11.576;2022-12-07T01:54:15;4.30;40.20
490;DHT22;231;48.120;11.576;2022-12-07T01:56:47;4.30;40.30
490;DHT22;231;48.120;11.576;2022-12-07T01:59:16;4.20;39.70
490;DHT22;231;48.120;11.576;2022-12-07T02:01:44;4.30;39.70
490;DHT22;231;48.120;11.576;2022-12-07T02:04:12;4.00;39.10
490;DHT22;231;48.120;11.576;2022-12-07T02:06:40;4.10;40.00
490;DHT22;231;48.120;11.576;2022-12-07T02:09:08;4.10;40.40
490;DHT22;231;48.120;11.576;2022-12-07T02:11:35;4.20;40.80
490;DHT22;231;48.120;11.576;2022-12-07T02:14:02;4.20;40.30
490;DHT22;231;48.120;11.576;2022-12-07T02:16:36;4.30;40.60
490;DHT22;231;48.120;11.576;2022-12-07T02:22:24;4.50;39.70
490;DHT22;231;48.120;11.576;2022-12-07T02:25:04;4.60;39.40
490;DHT22;231;48.120;11.576;2022-12-07T02:27:40;4.60;38.70
490;DHT22;231;48.120;11.576;2022-12-07T02:30:12;4.60;38.80
490;DHT22;231;48.120;11.576;2022-12-07T02:32:44;4.60;38.10
490;DHT22;231;48.120;11.576;2022-12-07T02:35:17;4.60;38.40
490;DHT22;231;48.120;11.576;2022-12-07T02:37:53;4.70;38.40
490;DHT22;231;48.120;11.576;2022-12-07T02:40:27;4.70;38.10
490;DHT22;231;48.120;11.576;2022-12-07T02:43:00;4.70;37.60
490;DHT22;231;48.120;11.576;2022-12-07T02:45:30;4.80;37.60
490;DHT22;231;48.120;11.576;2022-12-07T02:47:59;4.80;37.20
490;DHT22;231;48.120;11.576;2022-12-07T02:50:27;4.90;37.30
490;DHT22;231;48.120;11.576;2022-12-07T02:52:55;4.80;36.90
490;DHT22;231;48.120;11.576;2022-12-07T02:55:27;4.80;37.00
490;DHT22;231;48.120;11.576;2022-12-07T02:58:16;4.80;36.90
490;DHT22;231;48.120;11.576;2022-12-07T03:00:52;4.90;36.70
490;DHT22;231;48.120;11.576;2022-12-07T03:03:22;4.80;36.50
490;DHT22;231;48.120;11.576;2022-12-07T03:06:00;4.80;36.70
490;DHT22;231;48.120;11.576;2022-12-07T03:08:39;4.80;37.50
490;DHT22;231;48.120;11.576;2022-12-07T03:11:13;4.70;37.20
490;DHT22;231;48.120;11.576;2022-12-07T03:13:46;4.80;37.60
490;DHT22;231;48.120;11.576;2022-12-07T03:16:18;4.80;37.50
490;DHT22;231;48.120;11.576;2022-12-07T03:18:49;4.80;37.50
490;DHT22;231;48.120;11.576;2022-12-07T03:21:20;4.90;37.50
490;DHT22;231;48.120;11.576;2022-12-07T03:23:51;4.90;36.90
490;DHT22;231;48.120;11.576;2022-12-07T03:26:19;4.80;37.00
490;DHT22;231;48.120;11.576;2022-12-07T03:28:51;4.80;37.30
490;DHT22;231;48.120;11.576;2022-12-07T03:31:23;4.80;37.50
490;DHT22;231;48.120;11.576;2022-12-07T03:33:58;4.90;37.30
490;DHT22;231;48.120;11.576;2022-12-07T03:36:30;4.80;37.00
490;DHT22;231;48.120;11.576;2022-12-07T03:39:06;4.80;37.60
490;DHT22;231;48.120;11.576;2022-12-07T03:41:35;4.90;37.50
490;DHT22;231;48.120;11.576;2022-12-07T03:44:03;4.90;37.50
490;DHT22;231;48.120;11.576;2022-12-07T03:46:37;4.90;36.80
490;DHT22;231;48.120;11.576;2022-12-07T03:49:13;4.90;37.30
490;DHT22;231;48.120;11.576;2022-12-07T03:51:47;4.90;37.40
490;DHT22;231;48.120;11.576;2022-12-07T03:54:19;4.90;37.20
490;DHT22;231;48.120;11.576;2022-12-07T03:56:49;4.70;38.20
490;DHT22;231;48.120;11.576;2022-12-07T03:59:17;4.60;39.10
490;DHT22;231;48.120;11.576;2022-12-07T04:01:52;4.60;39.50
490;DHT22;231;48.120;11.576;2022-12-07T04:04:19;4.50;39.80
490;DHT22;231;48.120;11.576;2022-12-07T04:06:46;4.50;40.60
490;DHT22;231;48.120;11.576;2022-12-07T04:09:13;4.50;40.70
490;DHT22;231;48.120;11.576;2022-12-07T04:11:40;4.50;40.30
490;DHT22;231;48.120;11.576;2022-12-07T04:14:07;4.40;40.50
490;DHT22;231;48.120;11.576;2022-12-07T04:16:49;4.40;41.00
490;DHT22;231;48.120;11.576;2022-12-07T04:19:17;4.40;40.80
490;DHT22;231;48.120;11.576;2022-12-07T04:21:45;4.50;41.20
490;DHT22;231;48.120;11.576;2022-12-07T04:24:13;4.40;40.50
490;DHT22;231;48.120;11.576;2022-12-07T04:26:41;4.30;40.90
490;DHT22;231;48.120;11.576;2022-12-07T04:29:09;4.30;41.80
490;DHT22;231;48.120;11.576;2022-12-07T04:31:36;4.30;42.10
490;DHT22;231;48.120;11.576;2022-12-07T04:34:05;4.40;42.60
490;DHT22;231;48.120;11.576;2022-12-07T04:36:40;4.20;42.60
490;DHT22;231;48.120;11.576;2022-12-07T04:39:08;4.10;43.80
490;DHT22;231;48.120;11.576;2022-12-07T04:41:35;4.20;44.50
490;DHT22;231;48.120;11.576;2022-12-07T04:44:03;4.30;44.50
490;DHT22;231;48.120;11.576;2022-12-07T04:46:33;4.30;44.90
490;DHT22;231;48.120;11.576;2022-12-07T04:49:00;3.90;44.60
490;DHT22;231;48.120;11.576;2022-12-07T04:51:29;4.30;45.10
490;DHT22;231;48.120;11.576;2022-12-07T04:54:04;4.30;46.00
490;DHT22;231;48.120;11.576;2022-12-07T04:56:31;4.30;45.80
490;DHT22;231;48.120;11.576;2022-12-07T04:59:01;4.30;46.60
490;DHT22;231;48.120;11.576;2022-12-07T05:01:28;4.40;46.50
490;DHT22;231;48.120;11.576;2022-12-07T05:03:55;4.30;45.20
490;DHT22;231;48.120;11.576;2022-12-07T05:06:23;4.30;45.30
490;DHT22;231;48.120;11.576;2022-12-07T05:08:51;4.20;45.70
490;DHT22;231;48.120;11.576;2022-12-07T05:11:19;4.10;46.50
490;DHT22;231;48.120;11.576;2022-12-07T05:14:05;4.10;46.70
490;DHT22;231;48.120;11.576;2022-12-07T05:16:32;4.10;46.50
490;DHT22;231;48.120;11.576;2022-12-07T05:18:59;3.90;47.30
490;DHT22;231;48.120;11.576;2022-12-07T05:21:26;3.80;48.30
490;DHT22;231;48.120;11.576;2022-12-07T05:23:54;3.90;48.90
490;DHT22;231;48.120;11.576;2022-12-07T05:26:22;3.90;48.30
490;DHT22;231;48.120;11.576;2022-12-07T05:28:50;3.90;48.30
490;DHT22;231;48.120;11.576;2022-12-07T05:31:18;4.00;48.40
490;DHT22;231;48.120;11.576;2022-12-07T05:33:45;4.00;48.80
490;DHT22;231;48.120;11.576;2022-12-07T05:36:12;4.00;48.60
490;DHT22;231;48.120;11.576;2022-12-07T05:38:39;4.10;48.50
490;DHT22;231;48.120;11.576;2022-12-07T05:41:08;4.10;48.30
490;DHT22;231;48.120;11.576;2022-12-07T05:43:57;4.00;46.50
490;DHT22;231;48.120;11.576;2022-12-07T05:46:24;3.90;46.10
490;DHT22;231;48.120;11.576;2022-12-07T05:48:51;3.80;47.20
490;DHT22;231;48.120;11.576;2022-12-07T05:51:18;3.80;47.90
490;DHT22;231;48.120;11.576;2022-12-07T05:53:45;3.80;48.30
490;DHT22;231;48.120;11.576;2022-12-07T05:56:14;3.50;47.30
490;DHT22;231;48.120;11.576;2022-12-07T05:58:49;3.70;47.30
490;DHT22;231;48.120;11.576;2022-12-07T06:01:33;3.70;46.90
490;DHT22;231;48.120;11.576;2022-12-07T06:04:00;3.80;46.70
490;DHT22;231;48.120;11.576;2022-12-07T06:06:27;3.60;46.50
490;DHT22;231;48.120;11.576;2022-12-07T06:08:54;3.80;47.00
490;DHT22;231;48.120;11.576;2022-12-07T06:11:22;3.60;46.60
490;DHT22;231;48.120;11.576;2022-12-07T06:14:07;3.80;45.60
490;DHT22;231;48.120;11.576;2022-12-07T06:16:34;3.90;45.60
490;DHT22;231;48.120;11.576;2022-12-07T06:19:01;3.90;45.90
490;DHT22;231;48.120;11.576;2022-12-07T06:21:28;3.90;45.70
490;DHT22;231;48.120;11.576;2022-12-07T06:23:55;4.00;45.80
490;DHT22;231;48.120;11.576;2022-12-07T06:26:23;4.00;45.60
490;DHT22;231;48.120;11.576;2022-12-07T06:28:59;4.00;45.50
490;DHT22;231;48.120;11.576;2022-12-07T06:31:26;4.20;45.50
490;DHT22;231;48.120;11.576;2022-12-07T06:33:57;4.30;45.00
490;DHT22;231;48.120;11.576;2022-12-07T06:36:25;4.30;44.40
490;DHT22;231;48.120;11.576;2022-12-07T06:38:52;4.30;44.20
490;DHT22;231;48.120;11.576;2022-12-07T06:41:19;4.30;44.00
490;DHT22;231;48.120;11.576;2022-12-07T06:43:47;4.30;43.70
490;DHT22;231;48.120;11.576;2022-12-07T06:46:15;4.30;43.50
490;DHT22;231;48.120;11.576;2022-12-07T06:48:42;3.80;42.70
490;DHT22;231;48.120;11.576;2022-12-07T06:51:10;4.20;43.70
490;DHT22;231;48.120;11.576;2022-12-07T06:53:39;4.20;43.80
490;DHT22;231;48.120;11.576;2022-12-07T06:56:06;4.20;43.50
490;DHT22;231;48.120;11.576;2022-12-07T06:58:33;4.20;43.80
490;DHT22;231;48.120;11.576;2022-12-07T07:01:02;4.20;43.80
490;DHT22;231;48.120;11.576;2022-12-07T07:03:29;4.30;43.70
490;DHT22;231;48.120;11.576;2022-12-07T07:05:56;4.30;42.70
490;DHT22;231;48.120;11.576;2022-12-07T07:08:23;4.30;41.70
490;DHT22;231;48.120;11.576;2022-12-07T07:10:50;4.30;42.00
490;DHT22;231;48.120;11.576;2022-12-07T07:13:17;4.20;41.70
490;DHT22;231;48.120;11.576;2022-12-07T07:15:44;4.30;42.20
490;DHT22;231;48.120;11.576;2022-12-07T07:18:13;4.20;42.00
490;DHT22;231;48.120;11.576;2022-12-07T07:20:40;4.30;41.80
490;DHT22;231;48.120;11.576;2022-12-07T07:23:07;4.20;41.30
490;DHT22;231;48.120;11.576;2022-12-07T07:25:34;4.20;41.30
490;DHT22;231;48.120;11.576;2022-12-07T07:28:01;4.10;41.20
490;DHT22;231;48.120;11.576;2022-12-07T07:30:28;4.10;41.40
490;DHT22;231;48.120;11.576;2022-12-07T07:32:56;4.20;42.20
490;DHT22;231;48.120;11.576;2022-12-07T07:35:26;4.40;42.00
490;DHT22;231;48.120;11.576;2022-12-07T07:37:53;4.30;41.10
490;DHT22;231;48.120;11.576;2022-12-07T07:40:21;4.40;41.30
490;DHT22;231;48.120;11.576;2022-12-07T07:42:49;4.40;41.40
490;DHT22;231;48.120;11.576;2022-12-07T07:45:16;4.40;40.60
490;DHT22;231;48.120;11.576;2022-12-07T07:47:43;4.50;40.40
490;DHT22;231;48.120;11.576;2022-12-07T07:50:10;4.60;40.10
490;DHT22;231;48.120;11.576;2022-12-07T07:52:39;4.50;39.90
490;DHT22;231;48.120;11.576;2022-12-07T07:55:07;4.60;40.10
490;DHT22;231;48.120;11.576;2022-12-07T07:57:37;4.60;40.90
490;DHT22;231;48.120;11.576;2022-12-07T08:00:07;4.70;40.30
490;DHT22;231;48.120;11.576;2022-12-07T08:02:35;4.70;40.00
490;DHT22;231;48.120;11.576;2022-12-07T08:05:02;4.80;40.20
490;DHT22;231;48.120;11.576;2022-12-07T08:07:30;4.80;39.30
490;DHT22;231;48.120;11.576;2022-12-07T08:09:58;4.70;38.60
490;DHT22;231;48.120;11.576;2022-12-07T08:12:25;4.70;38.60
490;DHT22;231;48.120;11.576;2022-12-07T08:14:52;4.60;38.00
490;DHT22;231;48.120;11.576;2022-12-07T08:17:21;4.60;38.20
490;DHT22;231;48.120;11.576;2022-12-07T08:19:48;4.70;38.90
490;DHT22;231;48.120;11.576;2022-12-07T08:22:15;4.70;38.50
490;DHT22;231;48.120;11.576;2022-12-07T08:24:43;4.70;38.30
490;DHT22;231;48.120;11.576;2022-12-07T08:27:11;4.70;38.70
490;DHT22;231;48.120;11.576;2022-12-07T08:29:38;4.60;38.40
490;DHT22;231;48.120;11.576;2022-12-07T08:32:06;4.70;39.30
490;DHT22;231;48.120;11.576;2022-12-07T08:34:33;4.70;38.60
490;DHT22;231;48.120;11.576;2022-12-07T08:37:01;4.80;38.40
490;DHT22;231;48.120;11.576;2022-12-07T08:39:28;4.70;38.60
490;DHT22;231;48.120;11.576;2022-12-07T08:41:55;4.80;39.10
490;DHT22;231;48.120;11.576;2022-12-07T08:44:23;4.80;38.20
490;DHT22;231;48.120;11.576;2022-12-07T08:46:53;4.90;38.00
490;DHT22;231;48.120;11.576;2022-12-07T08:49:35;4.90;37.00
490;DHT22;231;48.120;11.576;2022-12-07T08:52:04;4.90;37.10
490;DHT22;231;48.120;11.576;2022-12-07T08:54:34;5.00;37.10
490;DHT22;231;48.120;11.576;2022-12-07T08:57:02;5.00;37.30
490;DHT22;231;48.120;11.576;2022-12-07T08:59:31;5.10;36.70
490;DHT22;231;48.120;11.576;2022-12-07T09:01:59;5.20;35.90
490;DHT22;231;48.120;11.576;2022-12-07T09:04:26;5.20;35.20
490;DHT22;231;48.120;11.576;2022-12-07T09:06:54;5.30;35.10
490;DHT22;231;48.120;11.576;2022-12-07T09:09:24;5.20;34.50
490;DHT22;231;48.120;11.576;2022-12-07T09:11:51;5.20;34.60
490;DHT22;231;48.120;11.576;2022-12-07T09:14:18;5.30;34.50
490;DHT22;231;48.120;11.576;2022-12-07T09:16:47;5.20;34.00
490;DHT22;231;48.120;11.576;2022-12-07T09:19:14;5.30;33.90
490;DHT22;231;48.120;11.576;2022-12-07T09:21:41;5.30;33.00
490;DHT22;231;48.120;11.576;2022-12-07T09:24:11;5.20;33.00
490;DHT22;231;48.120;11.576;2022-12-07T09:26:38;5.20;33.40
490;DHT22;231;48.120;11.576;2022-12-07T09:29:06;5.30;33.50
490;DHT22;231;48.120;11.576;2022-12-07T09:31:40;5.30;34.20
490;DHT22;231;48.120;11.576;2022-12-07T09:34:24;5.30;33.40
490;DHT22;231;48.120;11.576;2022-12-07T09:37:04;5.30;33.70
490;DHT22;231;48.120;11.576;2022-12-07T09:39:31;5.30;33.00
490;DHT22;231;48.120;11.576;2022-12-07T09:41:59;5.40;32.90
490;DHT22;231;48.120;11.576;2022-12-07T09:44:40;5.40;32.60
490;DHT22;231;48.120;11.576;2022-12-07T09:47:09;5.60;31.60
490;DHT22;231;48.120;11.576;2022-12-07T09:50:23;5.70;31.10
490;DHT22;231;48.120;11.576;2022-12-07T09:53:01;5.60;28.30
490;DHT22;231;48.120;11.576;2022-12-07T09:55:41;5.60;28.50
490;DHT22;231;48.120;11.576;2022-12-07T09:58:13;5.70;29.00
490;DHT22;231;48.120;11.576;2022-12-07T10:00:43;5.70;28.70
490;DHT22;231;48.120;11.576;2022-12-07T10:03:13;5.80;28.70
490;DHT22;231;48.120;11.576;2022-12-07T10:05:44;5.80;28.20
490;DHT22;231;48.120;11.576;2022-12-07T10:08:12;5.80;27.90
490;DHT22;231;48.120;11.576;2022-12-07T10:10:44;5.80;27.30
490;DHT22;231;48.120;11.576;2022-12-07T10:13:13;5.80;27.20
490;DHT22;231;48.120;11.576;2022-12-07T10:15:46;5.80;26.70
490;DHT22;231;48.120;11.576;2022-12-07T10:18:28;5.90;26.50
490;DHT22;231;48.120;11.576;2022-12-07T10:21:08;6.10;26.00
490;DHT22;231;48.120;11.576;2022-12-07T10:23:38;6.10;25.90
490;DHT22;231;48.120;11.576;2022-12-07T10:26:27;6.20;25.40
490;DHT22;231;48.120;11.576;2022-12-07T10:28:56;6.30;24.80
490;DHT22;231;48.120;11.576;2022-12-07T10:31:38;6.30;23.90
490;DHT22;231;48.120;11.576;2022-12-07T10:34:21;6.40;23.60
490;DHT22;231;48.120;11.576;2022-12-07T10:37:26;6.50;23.30
490;DHT22;231;48.120;11.576;2022-12-07T10:39:55;6.50;23.10
490;DHT22;231;48.120;11.576;2022-12-07T10:42:24;6.60;22.60
490;DHT22;231;48.120;11.576;2022-12-07T10:45:08;6.80;22.30
490;DHT22;231;48.120;11.576;2022-12-07T10:47:38;6.80;21.20
490;DHT22;231;48.120;11.576;2022-12-07T10:53:27;6.90;21.10
490;DHT22;231;48.120;11.576;2022-12-07T10:56:14;6.90;20.50
490;DHT22;231;48.120;11.576;2022-12-07T10:58:56;6.90;19.20
490;DHT22;231;48.120;11.576;2022-12-07T11:01:31;7.00;19.60
490;DHT22;231;48.120;11.576;2022-12-07T11:04:21;7.00;18.80
490;DHT22;231;48.120;11.576;2022-12-07T11:06:57;7.00;19.60
490;DHT22;231;48.120;11.576;2022-12-07T11:09:51;7.10;18.40
490;DHT22;231;48.120;11.576;2022-12-07T11:12:34;7.00;17.90
490;DHT22;231;48.120;11.576;2022-12-07T11:15:12;7.10;17.90
490;DHT22;231;48.120;11.576;2022-12-07T11:17:48;7.10;17.50
490;DHT22;231;48.120;11.576;2022-12-07T11:20:37;7.10;17.70
490;DHT22;231;48.120;11.576;2022-12-07T11:23:23;7.00;17.00
490;DHT22;231;48.120;11.576;2022-12-07T11:26:02;7.00;16.80
490;DHT22;231;48.120;11.576;2022-12-07T11:28:43;6.80;16.80
490;DHT22;231;48.120;11.576;2022-12-07T11:31:20;6.90;17.00
490;DHT22;231;48.120;11.576;2022-12-07T11:33:54;6.80;17.20
490;DHT22;231;48.120;11.576;2022-12-07T11:36:37;6.80;17.20
490;DHT22;231;48.120;11.576;2022-12-07T11:39:11;6.70;17.40
490;DHT22;231;48.120;11.576;2022-12-07T11:41:45;6.80;17.40
490;DHT22;231;48.120;11.576;2022-12-07T11:44:25;6.90;17.20
490;DHT22;231;48.120;11.576;2022-12-07T11:46:55;7.00;17.30
490;DHT22;231;48.120;11.576;2022-12-07T11:49:36;7.00;16.90
490;DHT22;231;48.120;11.576;2022-12-07T11:52:06;7.00;16.00
490;DHT22;231;48.120;11.576;2022-12-07T11:54:45;7.00;16.10
490;DHT22;231;48.120;11.576;2022-12-07T11:57:19;7.00;15.60
490;DHT22;231;48.120;11.576;2022-12-07T11:59:50;7.00;15.10
490;DHT22;231;48.120;11.576;2022-12-07T12:02:22;7.00;14.60
490;DHT22;231;48.120;11.576;2022-12-07T12:04:55;6.90;14.70
490;DHT22;231;48.120;11.576;2022-12-07T12:07:26;6.90;15.10
490;DHT22;231;48.120;11.576;2022-12-07T12:09:57;7.00;15.30
490;DHT22;231;48.120;11.576;2022-12-07T12:12:43;7.00;14.90
490;DHT22;231;48.120;11.576;2022-12-07T12:15:25;7.00;15.10
490;DHT22;231;48.120;11.576;2022-12-07T12:18:12;7.10;15.20
490;DHT22;231;48.120;11.576;2022-12-07T12:20:46;7.10;15.20
490;DHT22;231;48.120;11.576;2022-12-07T12:23:17;7.10;15.00
490;DHT22;231;48.120;11.576;2022-12-07T12:25:46;7.00;15.10
490;DHT22;231;48.120;11.576;2022-12-07T12:28:23;6.90;15.70
490;DHT22;231;48.120;11.576;2022-12-07T12:31:09;6.90;15.70
490;DHT22;231;48.120;11.576;2022-12-07T12:33:43;7.00;15.80
490;DHT22;231;48.120;11.576;2022-12-07T12:36:21;7.00;16.00
490;DHT22;231;48.120;11.576;2022-12-07T12:38:50;7.00;16.00
490;DHT22;231;48.120;11.576;2022-12-07T12:50:27;6.90;15.80
490;DHT22;231;48.120;11.576;2022-12-07T12:53:16;6.90;16.10
490;DHT22;231;48.120;11.576;2022-12-07T12:56:08;6.80;16.60
490;DHT22;231;48.120;11.576;2022-12-07T12:58:47;6.90;17.10
490;DHT22;231;48.120;11.576;2022-12-07T13:01:45;6.90;18.10
490;DHT22;231;48.120;11.576;2022-12-07T13:06:59;6.80;19.60
490;DHT22;231;48.120;11.576;2022-12-07T13:09:28;6.70;19.90
490;DHT22;231;48.120;11.576;2022-12-07T13:12:01;6.70;20.20
490;DHT22;231;48.120;11.576;2022-12-07T13:14:53;6.60;20.00
490;DHT22;231;48.120;11.576;2022-12-07T13:17:56;6.70;20.10
490;DHT22;231;48.120;11.576;2022-12-07T13:23:31;6.60;19.70
490;DHT22;231;48.120;11.576;2022-12-07T13:26:21;6.60;19.70
490;DHT22;231;48.120;11.576;2022-12-07T13:28:50;6.60;19.80
490;DHT22;231;48.120;11.576;2022-12-07T13:31:31;6.40;19.80
490;DHT22;231;48.120;11.576;2022-12-07T13:34:01;6.30;20.20
490;DHT22;231;48.120;11.576;2022-12-07T13:36:32;6.30;20.50
490;DHT22;231;48.120;11.576;2022-12-07T13:39:15;6.40;20.50
490;DHT22;231;48.120;11.576;2022-12-07T13:41:44;6.50;20.30
490;DHT22;231;48.120;11.576;2022-12-07T13:44:13;6.50;20.00
490;DHT22;231;48.120;11.576;2022-12-07T13:46:48;6.60;19.90
490;DHT22;231;48.120;11.576;2022-12-07T13:49:21;6.70;19.90
490;DHT22;231;48.120;11.576;2022-12-07T13:51:48;6.60;19.10
490;DHT22;231;48.120;11.576;2022-12-07T13:54:16;6.40;19.50
490;DHT22;231;48.120;11.576;2022-12-07T13:56:43;6.40;19.70
490;DHT22;231;48.120;11.576;2022-12-07T13:59:14;6.40;19.50
490;DHT22;231;48.120;11.576;2022-12-07T14:01:45;6.30;18.60
490;DHT22;231;48.120;11.576;2022-12-07T14:04:19;6.30;18.60
490;DHT22;231;48.120;11.576;2022-12-07T14:06:52;6.30;18.30
490;DHT22;231;48.120;11.576;2022-12-07T14:09:20;6.40;18.00
490;DHT22;231;48.120;11.576;2022-12-07T14:11:49;6.40;18.30
490;DHT22;231;48.120;11.576;2022-12-07T14:14:19;6.50;17.70
490;DHT22;231;48.120;11.576;2022-12-07T14:17:00;6.40;17.40
490;DHT22;231;48.120;11.576;2022-12-07T14:19:49;6.30;16.60
490;DHT22;231;48.120;11.576;2022-12-07T14:22:28;6.30;16.90
490;DHT22;231;48.120;11.576;2022-12-07T14:25:14;6.30;17.00
490;DHT22;231;48.120;11.576;2022-12-07T14:27:52;6.20;17.30
490;DHT22;231;48.120;11.576;2022-12-07T14:30:22;6.20;17.70
490;DHT22;231;48.120;11.576;2022-12-07T14:32:53;6.20;18.30
490;DHT22;231;48.120;11.576;2022-12-07T14:35:22;6.20;18.50
490;DHT22;231;48.120;11.576;2022-12-07T14:37:49;6.20;18.30
490;DHT22;231;48.120;11.576;2022-12-07T14:40:18;6.30;17.90
490;DHT22;231;48.120;11.576;2022-12-07T14:42:48;6.30;18.00
490;DHT22;231;48.120;11.576;2022-12-07T14:45:18;6.20;18.70
490;DHT22;231;48.120;11.576;2022-12-07T14:47:46;6.20;19.20
490;DHT22;231;48.120;11.576;2022-12-07T14:50:15;6.30;19.30
490;DHT22;231;48.120;11.576;2022-12-07T14:52:47;6.30;19.60
490;DHT22;231;48.120;11.576;2022-12-07T14:55:18;6.20;19.10
490;DHT22;231;48.120;11.576;2022-12-07T14:57:46;6.20;19.40
490;DHT22;231;48.120;11.576;2022-12-07T15:00:15;6.20;19.40
490;DHT22;231;48.120;11.576;2022-12-07T15:02:43;6.20;19.50
490;DHT22;231;48.120;11.576;2022-12-07T15:05:10;6.20;19.40
490;DHT22;231;48.120;11.576;2022-12-07T15:07:47;6.10;19.30
490;DHT22;231;48.120;11.576;2022-12-07T15:10:16;6.00;19.90
490;DHT22;231;48.120;11.576;2022-12-07T15:12:44;5.90;20.10
490;DHT22;231;48.120;11.576;2022-12-07T15:15:12;5.90;20.40
490;DHT22;231;48.120;11.576;2022-12-07T15:17:39;5.90;20.40
490;DHT22;231;48.120;11.576;2022-12-07T15:20:11;5.90;20.70
490;DHT22;231;48.120;11.576;2022-12-07T15:22:38;5.90;20.70
490;DHT22;231;48.120;11.576;2022-12-07T15:25:08;5.90;20.90
490;DHT22;231;48.120;11.576;2022-12-07T15:27:35;5.80;21.10
490;DHT22;231;48.120;11.576;2022-12-07T15:30:03;5.80;21.30
490;DHT22;231;48.120;11.576;2022-12-07T15:32:30;5.70;21.60
490;DHT22;231;48.120;11.576;2022-12-07T15:34:57;5.70;21.70
490;DHT22;231;48.120;11.576;2022-12-07T15:37:24;5.70;21.90
490;DHT22;231;48.120;11.576;2022-12-07T15:39:50;5.70;22.10
490;DHT22;231;48.120;11.576;2022-12-07T15:42:19;5.70;22.50
490;DHT22;231;48.120;11.576;2022-12-07T15:44:46;5.70;22.70
490;DHT22;231;48.120;11.576;2022-12-07T15:47:30;5.70;22.80
490;DHT22;231;48.120;11.576;2022-12-07T15:49:57;5.60;23.70
490;DHT22;231;48.120;11.576;2022-12-07T15:52:25;5.60;24.00
490;DHT22;231;48.120;11.576;2022-12-07T15:54:51;5.50;24.60
490;DHT22;231;48.120;11.576;2022-12-07T15:57:20;5.50;25.40
490;DHT22;231;48.120;11.576;2022-12-07T15:59:47;5.60;25.20
490;DHT22;231;48.120;11.576;2022-12-07T16:02:14;5.60;25.30
490;DHT22;231;48.120;11.576;2022-12-07T16:04:41;5.60;25.50
490;DHT22;231;48.120;11.576;2022-12-07T16:07:09;5.50;25.70
490;DHT22;231;48.120;11.576;2022-12-07T16:09:37;5.50;25.90
490;DHT22;231;48.120;11.576;2022-12-07T16:12:04;5.50;26.20
490;DHT22;231;48.120;11.576;2022-12-07T16:14:33;5.30;27.00
490;DHT22;231;48.120;11.576;2022-12-07T16:17:00;5.20;27.60
490;DHT22;231;48.120;11.576;2022-12-07T16:19:27;5.20;27.80
490;DHT22;231;48.120;11.576;2022-12-07T16:21:54;5.20;28.10
490;DHT22;231;48.120;11.576;2022-12-07T16:24:21;5.20;28.30
490;DHT22;231;48.120;11.576;2022-12-07T16:26:48;5.20;28.50
490;DHT22;231;48.120;11.576;2022-12-07T16:29:22;5.10;28.80
490;DHT22;231;48.120;11.576;2022-12-07T16:31:51;5.10;29.10
490;DHT22;231;48.120;11.576;2022-12-07T16:34:18;5.10;29.20
490;DHT22;231;48.120;11.576;2022-12-07T16:36:45;5.10;29.60
490;DHT22;231;48.120;11.576;2022-12-07T16:39:13;5.00;30.00
490;DHT22;231;48.120;11.576;2022-12-07T16:41:39;5.00;30.30
490;DHT22;231;48.120;11.576;2022-12-07T16:44:10;5.00;30.20
490;DHT22;231;48.120;11.576;2022-12-07T16:46:44;5.00;30.00
490;DHT22;231;48.120;11.576;2022-12-07T16:49:16;5.10;30.70
490;DHT22;231;48.120;11.576;2022-12-07T16:51:44;5.10;30.70
490;DHT22;231;48.120;11.576;2022-12-07T16:54:12;5.10;30.70
490;DHT22;231;48.120;11.576;2022-12-07T16:56:39;5.00;30.20
490;DHT22;231;48.120;11.576;2022-12-07T16:59:06;5.00;30.90
490;DHT22;231;48.120;11.576;2022-12-07T17:01:34;5.00;31.10
490;DHT22;231;48.120;11.576;2022-12-07T17:04:01;5.10;30.90
490;DHT22;231;48.120;11.576;2022-12-07T17:06:31;5.10;30.80
490;DHT22;231;48.120;11.576;2022-12-07T17:09:05;5.10;30.60
490;DHT22;231;48.120;11.576;2022-12-07T17:11:35;5.10;30.00
490;DHT22;231;48.120;11.576;2022-12-07T17:14:02;5.10;29.80
490;DHT22;231;48.120;11.576;2022-12-07T17:16:47;5.10;29.40
490;DHT22;231;48.120;11.576;2022-12-07T17:19:16;5.10;29.70
490;DHT22;231;48.120;11.576;2022-12-07T17:21:44;5.10;29.40